Flight Track Log - Related Links

Times and Time Zones

All times are in EDT time to prevent confusion due to time zone crossing. See the N95445 flight status page for this flight to view local times or setup timezone preferences in your user account.

Time Position Orientation Groundspeed Altitude Reporting Facility
EDT Latitude Longitude Course Direction KTS MPH feet Rate Location/Type
Tue 12:02:00 PM 41.0062 -82.8234 309° West  Level Estimated
Tue 12:03:00 PM 41.0293 -82.8619 308° West  Level Estimated
Tue 12:04:00 PM 41.0523 -82.9004 308° West  Level Estimated
Tue 12:05:00 PM 41.0753 -82.9389 308° West  Level Estimated
Tue 12:06:00 PM 41.0983 -82.9775 308° West  Level Estimated
Tue 12:07:00 PM 41.1213 -83.0161 308° West  Level Estimated
Tue 12:08:00 PM 41.1443 -83.0546 308° West  Level Estimated
Tue 12:09:00 PM 41.1672 -83.0933 308° West  Level Estimated
Tue 12:10:00 PM 41.1902 -83.1319 308° West  Level Estimated
Tue 12:11:00 PM 41.2131 -83.1706 308° West  Level Estimated
Tue 12:12:00 PM 41.2360 -83.2093 308° West  Level Estimated
Tue 12:13:00 PM 41.2590 -83.2481 308° West  Level Estimated
Tue 12:14:00 PM 41.2819 -83.2868 308° West  Level Estimated
Tue 12:15:00 PM 41.3047 -83.3256 308° West  Level Estimated
Tue 12:16:00 PM 41.3276 -83.3645 308° West  Level Estimated
Tue 12:17:00 PM 41.3505 -83.4033 308° West  Level Estimated
Tue 12:18:00 PM 41.3733 -83.4422 308° West  Level Estimated
Tue 12:19:00 PM 41.3962 -83.4811 308° West  Level Estimated
Tue 12:20:00 PM 41.4190 -83.5200 308° West  Level Estimated
Tue 12:21:00 PM 41.4418 -83.5590 308° West  Level Estimated
Tue 12:22:00 PM 41.4646 -83.5980 308° West  Level Estimated
Tue 12:23:00 PM 41.4874 -83.6370 308° West  Level Estimated
Tue 12:24:00 PM 41.5102 -83.6760 308° West  Level Estimated
Tue 12:25:00 PM 41.5329 -83.7151 308° West  Level Estimated
Tue 12:26:00 PM 41.5556 -83.7542 308° West  Level Estimated
Tue 12:27:00 PM 41.5784 -83.7933 308° West  Level Estimated
Tue 12:28:00 PM 41.5868 -83.8078 308° West  Level Estimated
Tue 12:29:00 PM 41.5868 -83.8078 209° Southwest  Level Estimated
Tue 12:30:00 PM 41.5868 -83.8078 209° Southwest  Level Estimated
Tue 12:31:00 PM 41.5868 -83.8078 209° Southwest  Level Estimated
Tue 12:32:00 PM 41.5868 -83.8078 209° Southwest  Level Estimated
Tue 12:33:00 PM 41.5868 -83.8078 209° Southwest  Level Estimated
Tue 12:34:00 PM 41.5868 -83.8078 209° Southwest  Level Estimated
Tue 12:35:00 PM 41.5868 -83.8078 209° Southwest  Level Estimated
Tue 12:36:00 PM 41.5868 -83.8078 209° Southwest  Level Estimated
Tue 12:37:00 PM 41.5868 -83.8078 209° Southwest  Level Estimated
Tue 12:38:00 PM 41.5868 -83.8078 209° Southwest  Level Estimated
Tue 12:39:00 PM 41.5868 -83.8078 209° Southwest  Level Estimated
Tue 12:40:00 PM 41.5868 -83.8078 209° Southwest  Level Estimated
Tue 12:41:00 PM 41.5868 -83.8078 209° Southwest  Level Estimated
Tue 12:42:00 PM 41.5868 -83.8078 209° Southwest  Level Estimated
Tue 12:43:00 PM 41.5868 -83.8078 209° Southwest  Level Estimated

Login

Don't have an account? Register now (free) for customized features, flight alerts, and more!